createdAt,value
2017-03-20T00:01:02.962Z,0
2017-03-20T00:02:16.167Z,0
2017-03-20T00:03:28.938Z,0
2017-03-20T00:04:41.311Z,0
2017-03-20T00:05:54.566Z,0
2017-03-20T00:07:07.814Z,0
2017-03-20T00:08:20.536Z,0
2017-03-20T00:09:33.771Z,0
2017-03-20T00:10:46.469Z,0
2017-03-20T00:11:59.253Z,0
2017-03-20T00:13:12.550Z,0
2017-03-20T00:14:24.762Z,0
2017-03-20T00:15:38.019Z,0
2017-03-20T00:16:50.759Z,0
2017-03-20T00:18:03.995Z,0
2017-03-20T00:19:17.287Z,0
2017-03-20T00:20:30.073Z,0
2017-03-20T00:21:43.340Z,0
2017-03-20T00:22:56.075Z,0
2017-03-20T00:24:08.798Z,0
2017-03-20T00:25:21.488Z,0
2017-03-20T00:26:34.750Z,0
2017-03-20T00:27:47.975Z,0
2017-03-20T00:29:01.193Z,0
2017-03-20T00:42:56.724Z,0
2017-03-20T00:44:09.456Z,0
2017-03-20T00:45:21.700Z,0
2017-03-20T00:46:34.923Z,0
2017-03-20T00:47:47.657Z,0
2017-03-20T00:49:00.869Z,0
2017-03-20T00:50:13.569Z,0
2017-03-20T00:51:26.820Z,0
2017-03-20T00:52:40.065Z,0
2017-03-20T00:53:52.286Z,0
2017-03-20T00:55:05.038Z,0
2017-03-20T00:56:17.753Z,0
2017-03-20T00:57:31.035Z,0
2017-03-20T00:58:43.798Z,0
2017-03-20T00:59:55.492Z,0
2017-03-20T01:01:08.213Z,0
2017-03-20T01:02:21.504Z,0
2017-03-20T01:03:34.235Z,0
2017-03-20T01:04:47.465Z,0
2017-03-20T01:06:00.676Z,0
2017-03-20T01:07:13.882Z,0
2017-03-20T01:08:27.144Z,0
2017-03-20T01:09:39.821Z,0
2017-03-20T01:10:52.519Z,0
2017-03-20T01:12:05.249Z,0
2017-03-20T01:13:18.531Z,0
2017-03-20T01:14:31.769Z,0
2017-03-20T01:15:43.983Z,0
2017-03-20T01:16:56.696Z,0
2017-03-20T01:18:09.915Z,0
2017-03-20T01:19:22.686Z,0
2017-03-20T01:20:35.885Z,0
2017-03-20T01:21:48.578Z,0
2017-03-20T01:23:01.787Z,0
2017-03-20T01:24:14.529Z,0
2017-03-20T01:25:27.772Z,0
2017-03-20T01:26:39.981Z,0
2017-03-20T01:27:51.692Z,0
2017-03-20T01:29:03.894Z,0
2017-03-20T01:30:16.634Z,0
2017-03-20T01:31:29.374Z,0
2017-03-20T01:32:42.618Z,0
2017-03-20T01:33:55.336Z,0
2017-03-20T01:35:08.581Z,0
2017-03-20T01:36:21.337Z,0
2017-03-20T01:37:33.550Z,0
2017-03-20T01:38:46.270Z,0
2017-03-20T01:39:58.987Z,0
2017-03-20T01:41:11.725Z,0
2017-03-20T01:42:24.457Z,0
2017-03-20T01:43:37.166Z,0
2017-03-20T01:44:50.426Z,0
2017-03-20T01:46:02.687Z,0
2017-03-20T01:47:15.399Z,0
2017-03-20T01:48:27.608Z,0
2017-03-20T01:49:40.327Z,0
2017-03-20T01:50:53.652Z,0
2017-03-20T01:52:06.338Z,0
2017-03-20T01:53:19.538Z,0
2017-03-20T01:54:32.788Z,0
2017-03-20T01:55:45.516Z,0
2017-03-20T01:56:58.774Z,0
2017-03-20T01:58:10.955Z,0
2017-03-20T01:59:24.252Z,0
2017-03-20T02:00:37.457Z,0
2017-03-20T02:01:50.730Z,0
2017-03-20T02:03:03.059Z,0
2017-03-20T02:04:15.254Z,0
2017-03-20T02:05:26.938Z,0
2017-03-20T02:06:40.177Z,0
2017-03-20T02:07:53.498Z,0
2017-03-20T02:09:06.729Z,0
2017-03-20T02:10:20.005Z,0
2017-03-20T02:11:32.690Z,0
2017-03-20T02:12:45.406Z,0
2017-03-20T02:13:58.623Z,0
2017-03-20T02:15:11.826Z,0
2017-03-20T02:16:24.570Z,0
2017-03-20T02:17:37.876Z,0
2017-03-20T02:18:50.642Z,0
2017-03-20T02:20:03.906Z,0
2017-03-20T02:21:17.114Z,0
2017-03-20T02:22:30.337Z,0
2017-03-20T02:23:43.060Z,0
2017-03-20T02:24:55.753Z,0
2017-03-20T02:26:08.993Z,0
2017-03-20T02:27:22.229Z,0
2017-03-20T02:28:35.448Z,0
2017-03-20T02:29:48.649Z,0
2017-03-20T02:31:01.887Z,0
2017-03-20T02:32:14.085Z,0
2017-03-20T02:33:27.350Z,0
2017-03-20T02:34:40.617Z,0
2017-03-20T02:35:52.825Z,0
2017-03-20T02:37:05.553Z,0
2017-03-20T02:38:18.785Z,0
2017-03-20T02:39:32.035Z,0
2017-03-20T02:40:44.758Z,0
2017-03-20T02:41:57.527Z,0
2017-03-20T02:43:10.746Z,0
2017-03-20T02:44:23.966Z,0
2017-03-20T02:45:37.190Z,0
2017-03-20T02:46:49.901Z,0
2017-03-20T02:48:03.138Z,0
2017-03-20T02:49:15.859Z,0
2017-03-20T02:50:28.662Z,0
2017-03-20T02:51:41.917Z,0
2017-03-20T02:52:54.138Z,0
2017-03-20T02:54:06.882Z,0
2017-03-20T02:55:20.150Z,0
2017-03-20T02:56:33.378Z,0
2017-03-20T02:57:46.585Z,0
2017-03-20T02:58:58.807Z,0
2017-03-20T03:00:11.508Z,0
2017-03-20T03:01:24.752Z,0
2017-03-20T03:02:37.484Z,0
2017-03-20T03:03:50.725Z,0
2017-03-20T03:05:02.975Z,0
2017-03-20T03:06:15.719Z,0
2017-03-20T03:07:28.925Z,0
2017-03-20T03:08:42.185Z,0
2017-03-20T03:09:55.416Z,0
2017-03-20T03:11:08.147Z,0
2017-03-20T03:12:21.363Z,0
2017-03-20T03:13:34.089Z,0
2017-03-20T03:14:46.515Z,0
2017-03-20T03:15:59.243Z,0
2017-03-20T03:17:12.482Z,0
2017-03-20T03:18:25.247Z,0
2017-03-20T03:19:37.961Z,0
2017-03-20T03:20:51.192Z,0
2017-03-20T03:22:04.197Z,0
2017-03-20T03:23:17.464Z,0
2017-03-20T03:24:29.648Z,0
2017-03-20T03:25:42.392Z,0
2017-03-20T03:26:55.642Z,0
2017-03-20T03:28:08.397Z,0
2017-03-20T03:29:21.129Z,0
2017-03-20T03:30:33.339Z,0
2017-03-20T03:31:46.058Z,0
2017-03-20T03:32:58.774Z,0
2017-03-20T03:34:12.006Z,0
2017-03-20T03:35:25.256Z,0
2017-03-20T03:36:38.486Z,0
2017-03-20T03:37:51.261Z,0
2017-03-20T03:39:03.994Z,0
2017-03-20T03:40:16.225Z,0
2017-03-20T03:41:28.956Z,0
2017-03-20T03:42:42.193Z,0
2017-03-20T03:43:55.468Z,0
2017-03-20T03:45:08.722Z,0
2017-03-20T03:46:21.411Z,0
2017-03-20T03:47:34.640Z,0
2017-03-20T03:48:47.924Z,0
2017-03-20T03:50:00.659Z,0
2017-03-20T03:51:13.408Z,0
2017-03-20T03:52:24.606Z,0
2017-03-20T03:53:37.854Z,0
2017-03-20T03:54:50.748Z,0
2017-03-20T03:56:03.995Z,0
2017-03-20T03:57:17.278Z,0
2017-03-20T03:58:30.522Z,0
2017-03-20T03:59:43.723Z,0
2017-03-20T04:00:56.959Z,0
2017-03-20T04:02:09.719Z,0
2017-03-20T04:03:22.446Z,0
2017-03-20T04:04:35.701Z,0
2017-03-20T04:05:46.880Z,0
2017-03-20T04:06:59.589Z,0
2017-03-20T04:08:12.317Z,0
2017-03-20T04:09:24.039Z,0
2017-03-20T04:10:37.286Z,0
2017-03-20T04:11:49.501Z,0
2017-03-20T04:13:02.227Z,0
2017-03-20T04:14:14.970Z,0
2017-03-20T04:15:27.219Z,0
2017-03-20T04:16:40.479Z,0
2017-03-20T04:17:53.202Z,0
2017-03-20T04:19:06.426Z,0
2017-03-20T04:20:19.669Z,0
2017-03-20T04:21:32.365Z,0
2017-03-20T04:22:45.615Z,0
2017-03-20T04:23:58.370Z,0
2017-03-20T04:25:11.580Z,0
2017-03-20T04:26:24.778Z,0
2017-03-20T04:27:37.516Z,0
2017-03-20T04:28:50.754Z,0
2017-03-20T04:30:03.970Z,0
2017-03-20T04:31:16.695Z,0
2017-03-20T04:32:29.932Z,0
2017-03-20T04:33:42.655Z,0
2017-03-20T04:34:55.907Z,0
2017-03-20T04:36:08.619Z,0
2017-03-20T04:37:21.866Z,0
2017-03-20T04:38:35.100Z,0
2017-03-20T04:39:48.348Z,0
2017-03-20T04:41:01.054Z,0
2017-03-20T04:42:13.829Z,0
2017-03-20T04:43:26.569Z,0
2017-03-20T04:44:39.843Z,0
2017-03-20T04:45:52.024Z,0
2017-03-20T04:47:04.797Z,0
2017-03-20T04:48:17.551Z,0
2017-03-20T04:49:30.310Z,0
2017-03-20T04:50:43.066Z,0
2017-03-20T04:51:55.783Z,0
2017-03-20T04:53:08.504Z,0
2017-03-20T04:54:21.208Z,0
2017-03-20T04:55:33.934Z,0
2017-03-20T04:56:47.167Z,0
2017-03-20T04:58:00.395Z,0
2017-03-20T04:59:13.107Z,0
2017-03-20T05:00:26.325Z,0
2017-03-20T05:01:39.025Z,0
2017-03-20T05:02:52.265Z,0
2017-03-20T05:04:04.987Z,0
2017-03-20T05:05:17.712Z,0
2017-03-20T05:06:29.946Z,0
2017-03-20T05:07:42.676Z,0
2017-03-20T05:08:55.927Z,0
2017-03-20T05:10:08.132Z,0
2017-03-20T05:11:20.884Z,0
2017-03-20T05:12:33.606Z,0
2017-03-20T05:13:46.310Z,0
2017-03-20T05:14:59.548Z,0
2017-03-20T05:16:12.296Z,0
2017-03-20T05:17:25.045Z,0
2017-03-20T05:18:38.303Z,0
2017-03-20T05:19:51.520Z,0
2017-03-20T05:21:04.264Z,0
2017-03-20T05:22:17.027Z,0
2017-03-20T05:23:29.722Z,0
2017-03-20T05:24:42.970Z,0
2017-03-20T05:25:56.195Z,0
2017-03-20T05:27:08.963Z,0
2017-03-20T05:28:22.237Z,0
2017-03-20T05:29:35.497Z,0
2017-03-20T05:30:48.701Z,0
2017-03-20T05:32:00.907Z,0
2017-03-20T05:33:13.678Z,0
2017-03-20T05:34:26.946Z,0
2017-03-20T05:35:40.184Z,0
2017-03-20T05:36:53.440Z,0
2017-03-20T05:38:06.668Z,0
2017-03-20T05:39:19.875Z,0
2017-03-20T05:40:33.097Z,0
2017-03-20T05:41:46.358Z,0
2017-03-20T05:42:59.054Z,0
2017-03-20T05:44:12.319Z,0
2017-03-20T05:45:25.059Z,0
2017-03-20T05:46:38.267Z,0
2017-03-20T05:47:51.520Z,0
2017-03-20T05:49:04.267Z,0
2017-03-20T05:50:17.466Z,0
2017-03-20T05:51:30.191Z,0
2017-03-20T05:52:43.459Z,0
2017-03-20T05:53:56.688Z,0
2017-03-20T05:55:09.963Z,0
2017-03-20T05:56:22.713Z,0
2017-03-20T05:57:35.967Z,0
2017-03-20T05:58:49.246Z,0
2017-03-20T06:00:02.026Z,0
2017-03-20T06:01:15.225Z,0
2017-03-20T06:02:28.459Z,0
2017-03-20T06:03:41.712Z,0
2017-03-20T06:04:54.469Z,0
2017-03-20T06:06:07.189Z,0
2017-03-20T06:07:19.898Z,0
2017-03-20T06:08:33.143Z,0
2017-03-20T06:09:45.900Z,0
2017-03-20T06:10:59.154Z,0
2017-03-20T06:12:11.366Z,0
2017-03-20T06:13:24.123Z,0
2017-03-20T06:14:37.353Z,0
2017-03-20T06:15:50.597Z,0
2017-03-20T06:17:03.319Z,0
2017-03-20T06:18:16.599Z,0
2017-03-20T06:19:29.841Z,0
2017-03-20T06:20:43.103Z,0
2017-03-20T06:21:55.833Z,0
2017-03-20T06:23:08.601Z,0
2017-03-20T06:24:21.412Z,0
2017-03-20T06:25:34.734Z,0
2017-03-20T06:26:47.482Z,0
2017-03-20T06:28:00.198Z,0
2017-03-20T06:29:12.400Z,0
2017-03-20T06:30:25.609Z,0
2017-03-20T06:31:38.853Z,0
2017-03-20T06:32:51.582Z,0
2017-03-20T06:34:04.362Z,0
2017-03-20T06:35:17.609Z,0
2017-03-20T06:36:30.308Z,0
2017-03-20T06:37:43.617Z,0
2017-03-20T06:38:56.869Z,0
2017-03-20T06:40:09.097Z,0
2017-03-20T06:41:22.356Z,0
2017-03-20T06:42:35.572Z,0
2017-03-20T06:43:47.772Z,0
2017-03-20T06:45:01.056Z,0
2017-03-20T06:46:14.350Z,0
2017-03-20T06:47:27.599Z,0
2017-03-20T06:48:40.831Z,0
2017-03-20T06:49:54.072Z,0
2017-03-20T06:51:05.774Z,0
2017-03-20T06:52:18.998Z,0
2017-03-20T06:53:32.238Z,0
2017-03-20T06:54:44.982Z,0
2017-03-20T06:55:58.317Z,0
2017-03-20T06:57:11.566Z,0
2017-03-20T06:58:24.776Z,0
2017-03-20T06:59:38.038Z,0
2017-03-20T07:00:51.312Z,0
2017-03-20T07:02:03.524Z,0
2017-03-20T07:03:16.264Z,0
2017-03-20T07:04:29.508Z,0
2017-03-20T07:05:42.700Z,0
2017-03-20T07:06:56.031Z,0
2017-03-20T07:08:08.814Z,0
2017-03-20T07:09:22.056Z,0
2017-03-20T07:10:35.282Z,0
2017-03-20T07:11:47.994Z,0
2017-03-20T07:13:01.207Z,0
2017-03-20T07:14:13.427Z,0
2017-03-20T07:15:26.123Z,0
2017-03-20T07:16:39.410Z,0
2017-03-20T07:17:52.157Z,0
2017-03-20T07:19:04.898Z,0
2017-03-20T07:20:17.615Z,0
2017-03-20T07:21:30.380Z,0
2017-03-20T07:22:43.593Z,0
2017-03-20T07:23:56.865Z,0
2017-03-20T07:25:09.073Z,0
2017-03-20T07:26:22.372Z,0
2017-03-20T07:27:35.633Z,0
2017-03-20T07:28:47.844Z,0
2017-03-20T07:30:00.577Z,0
2017-03-20T07:31:13.334Z,0
2017-03-20T07:32:26.562Z,0
2017-03-20T07:33:39.306Z,0
2017-03-20T07:34:52.034Z,0
2017-03-20T07:36:04.758Z,0
2017-03-20T07:37:18.018Z,0
2017-03-20T07:38:31.273Z,0
2017-03-20T07:39:44.596Z,0
2017-03-20T07:40:57.845Z,0
2017-03-20T07:42:10.036Z,0
2017-03-20T07:43:23.243Z,0
2017-03-20T07:44:36.474Z,0
2017-03-20T07:45:48.716Z,0
2017-03-20T07:47:01.422Z,0
2017-03-20T07:48:14.671Z,0
2017-03-20T07:49:27.951Z,0
2017-03-20T07:50:41.195Z,0
2017-03-20T07:51:53.940Z,0
2017-03-20T07:53:07.188Z,0
2017-03-20T07:54:20.451Z,0
2017-03-20T07:55:33.188Z,0
2017-03-20T07:56:45.908Z,0
2017-03-20T07:57:59.142Z,0
2017-03-20T07:59:12.383Z,0
2017-03-20T08:00:25.611Z,0
2017-03-20T08:01:38.848Z,0
2017-03-20T08:02:52.086Z,0
2017-03-20T08:04:04.803Z,0
2017-03-20T08:05:17.583Z,0
2017-03-20T08:06:30.318Z,0
2017-03-20T08:07:43.049Z,0
2017-03-20T08:08:56.601Z,0
2017-03-20T08:10:08.814Z,0
2017-03-20T08:11:21.557Z,0
2017-03-20T08:12:34.256Z,0
2017-03-20T08:13:47.484Z,0
2017-03-20T08:15:00.200Z,0
2017-03-20T08:16:12.891Z,0
2017-03-20T08:17:26.126Z,0
2017-03-20T08:18:38.857Z,0
2017-03-20T08:19:52.090Z,0
2017-03-20T08:21:03.770Z,0
2017-03-20T08:22:17.034Z,0
2017-03-20T08:23:29.753Z,0
2017-03-20T08:24:43.017Z,0
2017-03-20T08:25:55.724Z,0
2017-03-20T08:27:08.973Z,0
2017-03-20T08:28:21.738Z,0
2017-03-20T08:29:34.972Z,0
2017-03-20T08:30:48.236Z,0
2017-03-20T08:32:01.473Z,0
2017-03-20T08:33:14.691Z,0
2017-03-20T08:34:27.402Z,0
2017-03-20T08:35:40.628Z,0
2017-03-20T08:36:53.343Z,0
2017-03-20T08:38:06.568Z,0
2017-03-20T08:39:19.786Z,0
2017-03-20T08:40:32.502Z,0
2017-03-20T08:41:45.212Z,0
2017-03-20T08:42:58.459Z,0
2017-03-20T08:44:11.715Z,0
2017-03-20T08:45:24.996Z,0
2017-03-20T08:46:38.269Z,0
2017-03-20T08:47:51.543Z,0
2017-03-20T08:49:04.777Z,0
2017-03-20T08:50:17.993Z,0
2017-03-20T08:51:31.237Z,4
2017-03-20T08:52:44.474Z,4
2017-03-20T08:53:57.768Z,4
2017-03-20T08:55:11.038Z,8
2017-03-20T08:56:23.248Z,8
2017-03-20T08:57:36.527Z,12
2017-03-20T08:58:49.234Z,12
2017-03-20T09:00:02.469Z,12
2017-03-20T09:01:15.200Z,12
2017-03-20T09:02:28.416Z,12
2017-03-20T09:03:41.122Z,16
2017-03-20T09:04:53.861Z,24
2017-03-20T09:06:07.108Z,32
2017-03-20T09:07:19.860Z,40
2017-03-20T09:08:32.579Z,52
2017-03-20T09:09:45.317Z,84
2017-03-20T09:10:58.547Z,164
2017-03-20T09:12:11.249Z,220
2017-03-20T09:13:24.511Z,216
2017-03-20T09:14:37.751Z,248
2017-03-20T09:15:50.974Z,228
2017-03-20T09:17:04.222Z,212
2017-03-20T09:18:16.948Z,212
2017-03-20T09:19:28.630Z,216
2017-03-20T09:20:41.868Z,228
2017-03-20T09:21:55.074Z,260
2017-03-20T09:23:08.306Z,384
2017-03-20T09:24:21.521Z,532
2017-03-20T09:25:34.772Z,764
2017-03-20T09:26:47.528Z,1036
2017-03-20T09:28:00.234Z,1160
2017-03-20T09:29:13.477Z,1040
2017-03-20T09:30:26.263Z,1092
2017-03-20T09:31:39.481Z,900
2017-03-20T09:32:52.236Z,800
2017-03-20T09:34:05.486Z,984
2017-03-20T09:35:18.239Z,840
2017-03-20T09:36:30.464Z,636
2017-03-20T09:37:43.743Z,700
2017-03-20T09:38:56.474Z,1032
2017-03-20T09:40:09.194Z,1340
2017-03-20T09:41:21.917Z,1808
2017-03-20T09:42:34.630Z,1572
2017-03-20T09:43:47.371Z,1212
2017-03-20T09:45:00.613Z,1244
2017-03-20T09:46:12.844Z,1384
2017-03-20T09:47:26.091Z,1656
2017-03-20T09:48:38.832Z,1844
2017-03-20T09:49:52.067Z,2400
2017-03-20T09:51:04.783Z,3728
2017-03-20T09:52:18.001Z,6092
2017-03-20T09:53:30.206Z,8420
2017-03-20T09:54:43.438Z,10180
2017-03-20T09:55:56.165Z,10944
2017-03-20T09:57:09.384Z,9392
2017-03-20T09:58:21.594Z,8104
2017-03-20T09:59:34.310Z,7816
2017-03-20T10:00:47.578Z,7940
2017-03-20T10:02:00.786Z,8844
2017-03-20T10:03:13.528Z,9776
2017-03-20T10:04:26.245Z,8260
2017-03-20T10:05:38.955Z,7856
2017-03-20T10:06:52.186Z,8552
2017-03-20T10:08:05.444Z,9260
2017-03-20T10:09:18.666Z,10252
2017-03-20T10:10:31.901Z,9496
2017-03-20T10:11:44.628Z,9720
2017-03-20T10:12:57.855Z,10480
2017-03-20T10:14:10.593Z,14024
2017-03-20T10:15:23.320Z,13992
2017-03-20T10:16:36.051Z,17152
2017-03-20T10:17:48.845Z,18496
2017-03-20T10:19:02.058Z,18400
2017-03-20T10:20:14.759Z,15764
2017-03-20T10:21:27.510Z,14616
2017-03-20T10:22:40.773Z,15060
2017-03-20T10:23:54.039Z,16004
2017-03-20T10:25:06.782Z,15988
2017-03-20T10:26:20.026Z,15908
2017-03-20T10:27:32.740Z,17536
2017-03-20T10:28:45.521Z,18688
2017-03-20T10:29:58.759Z,18112
2017-03-20T10:31:11.023Z,17052
2017-03-20T10:32:23.737Z,15932
2017-03-20T10:33:36.974Z,16040
2017-03-20T10:34:49.696Z,17856
2017-03-20T10:36:02.922Z,16880
2017-03-20T10:37:15.119Z,18944
2017-03-20T10:38:27.835Z,16776
2017-03-20T10:39:40.055Z,14396
2017-03-20T10:40:52.777Z,12464
2017-03-20T10:42:05.472Z,12904
2017-03-20T10:43:17.651Z,13032
2017-03-20T10:44:29.865Z,19904
2017-03-20T10:45:42.616Z,37664
2017-03-20T10:46:54.832Z,39136
2017-03-20T10:48:07.595Z,56800
2017-03-20T10:49:20.828Z,36384
2017-03-20T10:50:32.577Z,29856
2017-03-20T10:51:45.282Z,45952
2017-03-20T10:52:58.539Z,28448
2017-03-20T10:54:11.289Z,21920
2017-03-20T10:55:24.029Z,18944
2017-03-20T10:56:37.272Z,16852
2017-03-20T10:57:50.039Z,18176
2017-03-20T10:59:03.321Z,13932
2017-03-20T11:00:15.604Z,14000
2017-03-20T11:01:28.842Z,16292
2017-03-20T11:02:41.042Z,14816
2017-03-20T11:03:53.254Z,16648
2017-03-20T11:05:06.005Z,21600
2017-03-20T11:06:18.208Z,24032
2017-03-20T11:07:30.471Z,33824
2017-03-20T11:08:43.706Z,74592
2017-03-20T11:09:56.399Z,18400
2017-03-20T11:11:09.008Z,15824
2017-03-20T11:12:21.984Z,17704
2017-03-20T11:13:34.739Z,33152
2017-03-20T11:14:47.482Z,28192
2017-03-20T11:16:00.728Z,50816
2017-03-20T11:17:13.945Z,31872
2017-03-20T11:18:26.120Z,59648
2017-03-20T11:19:38.876Z,81888
2017-03-20T11:20:52.106Z,82176
2017-03-20T11:22:04.328Z,84224
2017-03-20T11:23:17.870Z,86272
2017-03-20T11:24:30.609Z,84960
2017-03-20T11:25:43.346Z,77376
2017-03-20T11:26:56.595Z,22080
2017-03-20T11:28:09.350Z,22528
2017-03-20T11:29:22.586Z,18624
2017-03-20T11:30:35.808Z,25312
2017-03-20T11:31:48.047Z,25664
2017-03-20T11:33:00.832Z,24832
2017-03-20T11:34:13.565Z,29824
2017-03-20T11:35:26.263Z,61952
2017-03-20T11:36:38.476Z,71328
2017-03-20T11:37:51.204Z,80864
2017-03-20T11:39:04.409Z,24256
2017-03-20T11:40:17.671Z,22208
2017-03-20T11:41:30.919Z,75520
2017-03-20T11:42:44.186Z,26432
2017-03-20T11:43:56.441Z,23392
2017-03-20T11:45:09.165Z,24128
2017-03-20T11:46:21.498Z,26880
2017-03-20T11:47:34.504Z,32800
2017-03-20T11:48:47.251Z,40128
2017-03-20T11:49:59.981Z,32992
2017-03-20T11:51:12.776Z,30720
2017-03-20T11:52:24.974Z,59776
2017-03-20T11:53:37.737Z,73632
2017-03-20T11:54:49.999Z,71808
2017-03-20T11:56:02.243Z,66080
2017-03-20T11:57:15.482Z,64640
2017-03-20T11:58:27.670Z,67264
2017-03-20T11:59:40.923Z,32480
2017-03-20T12:00:54.152Z,27456
2017-03-20T12:02:06.375Z,20608
2017-03-20T12:03:19.667Z,16636
2017-03-20T12:04:32.941Z,15580
2017-03-20T12:05:45.637Z,19424
2017-03-20T12:06:58.350Z,25504
2017-03-20T12:08:11.584Z,30464
2017-03-20T12:09:24.332Z,35744
2017-03-20T12:10:37.567Z,33344
2017-03-20T12:11:50.793Z,33312
2017-03-20T12:13:02.481Z,42112
2017-03-20T12:14:15.737Z,48224
2017-03-20T12:15:27.506Z,39840
2017-03-20T12:16:40.741Z,51584
2017-03-20T12:17:53.496Z,64704
2017-03-20T12:19:06.747Z,48192
2017-03-20T12:20:18.946Z,39840
2017-03-20T12:21:31.670Z,42944
2017-03-20T12:22:43.888Z,44736
2017-03-20T12:23:57.134Z,141920
2017-03-20T12:25:10.385Z,50240
2017-03-20T12:26:23.670Z,33184
2017-03-20T12:27:36.450Z,45760
2017-03-20T12:28:48.659Z,36640
2017-03-20T12:30:01.415Z,39136
2017-03-20T12:31:13.634Z,89216
2017-03-20T12:32:26.869Z,42560
2017-03-20T12:33:40.130Z,49056
2017-03-20T12:34:53.401Z,128416
2017-03-20T12:36:06.123Z,121696
2017-03-20T12:37:19.350Z,120192
2017-03-20T12:38:31.579Z,120480
2017-03-20T12:39:43.790Z,120000
2017-03-20T12:40:57.036Z,122560
2017-03-20T12:42:09.766Z,123008
2017-03-20T12:43:23.022Z,124544
2017-03-20T12:44:36.283Z,36384
2017-03-20T12:45:48.522Z,33824
2017-03-20T12:47:01.783Z,109312
2017-03-20T12:48:15.036Z,113152
2017-03-20T12:49:27.764Z,31456
2017-03-20T12:50:40.529Z,53120
2017-03-20T12:51:53.246Z,41056
2017-03-20T12:53:06.477Z,116736
2017-03-20T12:54:18.722Z,55264
2017-03-20T12:55:31.456Z,49088
2017-03-20T12:56:44.678Z,48608
2017-03-20T12:57:57.402Z,137568
2017-03-20T12:59:10.648Z,115840
2017-03-20T13:00:23.435Z,73632
2017-03-20T13:01:36.162Z,51584
2017-03-20T13:02:48.393Z,40448
2017-03-20T13:04:01.679Z,41152
2017-03-20T13:05:14.933Z,43456
2017-03-20T13:06:27.182Z,40480
2017-03-20T13:07:40.419Z,62304
2017-03-20T13:08:52.634Z,48544
2017-03-20T13:10:05.383Z,128512
2017-03-20T13:11:18.643Z,132544
2017-03-20T13:12:31.386Z,51328
2017-03-20T13:13:44.124Z,33088
2017-03-20T13:14:57.422Z,131744
2017-03-20T13:16:10.726Z,53824
2017-03-20T13:17:24.030Z,32832
2017-03-20T13:18:36.796Z,35808
2017-03-20T13:19:48.541Z,41984
2017-03-20T13:21:00.239Z,42304
2017-03-20T13:22:12.948Z,115232
2017-03-20T13:23:26.227Z,60576
2017-03-20T13:24:38.436Z,72384
2017-03-20T13:25:51.719Z,49088
2017-03-20T13:27:04.944Z,130208
2017-03-20T13:28:18.197Z,48352
2017-03-20T13:29:30.930Z,103264
2017-03-20T13:30:43.144Z,48032
2017-03-20T13:31:55.873Z,48928
2017-03-20T13:33:09.143Z,120992
2017-03-20T13:34:22.378Z,136896
2017-03-20T13:35:35.140Z,51808
2017-03-20T13:36:47.887Z,131584
2017-03-20T13:38:00.647Z,140480
2017-03-20T13:39:13.393Z,139968
2017-03-20T13:40:25.607Z,122400
2017-03-20T13:41:38.345Z,144576
2017-03-20T13:42:51.587Z,142688
2017-03-20T13:44:04.326Z,131936
2017-03-20T13:45:16.610Z,115904
2017-03-20T13:46:29.859Z,111680
2017-03-20T13:47:42.653Z,114944
2017-03-20T13:48:55.378Z,134528
2017-03-20T13:50:08.095Z,136896
2017-03-20T13:51:20.905Z,62144
2017-03-20T13:52:34.153Z,130976
2017-03-20T13:53:47.392Z,133760
2017-03-20T13:55:00.311Z,131552
2017-03-20T13:56:13.719Z,63680
2017-03-20T13:57:26.997Z,46880
2017-03-20T13:58:40.273Z,51360
2017-03-20T13:59:53.574Z,44640
2017-03-20T14:01:06.824Z,46368
2017-03-20T14:02:20.082Z,47712
2017-03-20T14:03:32.823Z,42784
2017-03-20T14:04:46.263Z,44768
2017-03-20T14:05:59.568Z,45856
2017-03-20T14:07:12.381Z,43136
2017-03-20T14:08:25.647Z,43840
2017-03-20T14:09:38.401Z,41152
2017-03-20T14:10:51.662Z,40480
2017-03-20T14:12:04.897Z,39488
2017-03-20T14:13:17.797Z,42336
2017-03-20T14:14:30.524Z,47360
2017-03-20T14:15:43.787Z,50976
2017-03-20T14:16:56.013Z,48928
2017-03-20T14:18:09.227Z,47680
2017-03-20T14:19:21.972Z,49184
2017-03-20T14:20:34.309Z,52864
2017-03-20T14:21:47.597Z,53664
2017-03-20T14:23:00.468Z,56512
2017-03-20T14:24:13.172Z,64800
2017-03-20T14:25:26.398Z,69696
2017-03-20T14:26:39.716Z,80256
2017-03-20T14:27:52.451Z,127392
2017-03-20T14:29:05.735Z,60928
2017-03-20T14:30:17.976Z,50848
2017-03-20T14:31:30.763Z,59296
2017-03-20T14:32:44.061Z,50592
2017-03-20T14:33:56.843Z,49504
2017-03-20T14:35:09.661Z,80224
2017-03-20T14:36:21.902Z,117792
2017-03-20T14:37:34.644Z,145696
2017-03-20T14:38:47.929Z,48512
2017-03-20T14:40:00.721Z,39968
2017-03-20T14:41:13.415Z,67552
2017-03-20T14:42:26.656Z,42784
2017-03-20T14:43:39.927Z,43008
2017-03-20T14:44:52.534Z,53216
2017-03-20T14:46:05.787Z,54784
2017-03-20T14:47:18.545Z,37280
2017-03-20T14:48:31.280Z,36416
2017-03-20T14:49:44.096Z,34496
2017-03-20T14:50:57.473Z,36064
2017-03-20T14:52:10.300Z,40608
2017-03-20T14:53:23.198Z,44000
2017-03-20T14:54:36.414Z,43968
2017-03-20T14:55:49.147Z,39072
2017-03-20T14:57:02.375Z,52896
2017-03-20T14:58:15.625Z,59264
2017-03-20T14:59:28.880Z,151008
2017-03-20T15:00:40.568Z,128320
2017-03-20T15:01:53.837Z,54272
2017-03-20T15:03:07.116Z,40576
2017-03-20T15:04:20.572Z,38656
2017-03-20T15:05:32.798Z,75648
2017-03-20T15:06:45.065Z,149376
2017-03-20T15:07:58.304Z,149568
2017-03-20T15:09:11.587Z,144768
2017-03-20T15:10:25.050Z,141664
2017-03-20T15:11:38.309Z,143136
2017-03-20T15:12:51.034Z,150976
2017-03-20T15:14:03.265Z,148992
2017-03-20T15:15:16.539Z,64608
2017-03-20T15:16:29.849Z,168928
2017-03-20T15:17:43.254Z,60320
2017-03-20T15:18:55.983Z,59712
2017-03-20T15:20:08.448Z,39904
2017-03-20T15:21:21.187Z,36832
2017-03-20T15:22:33.922Z,38432
2017-03-20T15:23:46.671Z,44000
2017-03-20T15:24:59.899Z,49472
2017-03-20T15:26:12.308Z,52992
2017-03-20T15:27:25.546Z,57536
2017-03-20T15:28:38.287Z,62592
2017-03-20T15:29:51.037Z,58080
2017-03-20T15:31:04.369Z,63008
2017-03-20T15:32:17.636Z,64672
2017-03-20T15:33:30.907Z,76736
2017-03-20T15:34:43.634Z,57632
2017-03-20T15:35:56.893Z,48288
2017-03-20T15:37:10.159Z,52224
2017-03-20T15:38:23.430Z,59520
2017-03-20T15:39:35.641Z,61760
2017-03-20T15:40:48.902Z,57440
2017-03-20T15:42:02.159Z,54624
2017-03-20T15:43:14.958Z,55040
2017-03-20T15:44:28.232Z,43072
2017-03-20T15:45:41.466Z,44704
2017-03-20T15:46:53.192Z,49216
2017-03-20T15:48:05.960Z,53888
2017-03-20T15:49:19.227Z,65088
2017-03-20T15:50:32.448Z,68960
2017-03-20T15:51:45.708Z,68736
2017-03-20T15:52:58.498Z,75968
2017-03-20T15:54:11.229Z,66272
2017-03-20T15:55:24.485Z,61376
2017-03-20T15:56:37.704Z,60800
2017-03-20T15:57:50.972Z,62176
2017-03-20T15:59:03.709Z,78464
2017-03-20T16:00:15.962Z,63648
2017-03-20T16:01:29.201Z,54080
2017-03-20T16:02:42.436Z,60448
2017-03-20T16:03:55.182Z,87712
2017-03-20T16:05:08.452Z,147616
2017-03-20T16:06:21.216Z,49728
2017-03-20T16:07:33.955Z,38272
2017-03-20T16:08:46.713Z,32928
2017-03-20T16:09:59.991Z,29120
2017-03-20T16:11:12.698Z,26944
2017-03-20T16:12:24.921Z,26144
2017-03-20T16:13:38.207Z,26336
2017-03-20T16:14:50.951Z,27520
2017-03-20T16:16:04.209Z,29760
2017-03-20T16:17:17.500Z,32736
2017-03-20T16:18:30.880Z,35872
2017-03-20T16:19:43.638Z,37632
2017-03-20T16:20:56.908Z,37984
2017-03-20T16:22:10.152Z,38912
2017-03-20T16:23:22.901Z,39648
2017-03-20T16:24:35.618Z,64448
2017-03-20T16:25:48.880Z,134016
2017-03-20T16:27:01.103Z,143680
2017-03-20T16:28:13.851Z,145600
2017-03-20T16:29:27.135Z,152672
2017-03-20T16:30:39.376Z,151808
2017-03-20T16:31:51.608Z,80608
2017-03-20T16:33:04.881Z,73088
2017-03-20T16:34:17.648Z,53312
2017-03-20T16:35:30.403Z,47968
2017-03-20T16:36:43.678Z,49600
2017-03-20T16:37:56.935Z,14416
2017-03-20T16:39:10.195Z,14580
2017-03-20T16:40:22.917Z,14080
2017-03-20T16:41:35.671Z,16624
2017-03-20T16:42:48.926Z,7000
2017-03-20T16:44:01.639Z,11812
2017-03-20T16:45:14.941Z,13024
2017-03-20T16:46:27.667Z,119072
2017-03-20T16:47:40.893Z,122176
2017-03-20T16:48:53.145Z,34304
2017-03-20T16:50:06.393Z,107648
2017-03-20T16:51:19.141Z,109984
2017-03-20T16:52:32.396Z,115648
2017-03-20T16:53:45.624Z,114272
2017-03-20T16:54:58.850Z,117248
2017-03-20T16:56:11.597Z,45888
2017-03-20T16:57:24.847Z,117632
2017-03-20T16:58:37.797Z,118400
2017-03-20T16:59:50.539Z,120896
2017-03-20T17:01:02.261Z,41056